Time;durP1;ratioP1;P1;durP2;ratioP2;P2;SDS_P1;SDS_P2;PMS_P1;PMS_P2;Temp;Humidity;BMP_temperature;BMP_pressure;BME280_temperature;BME280_humidity;BME280_pressure;Samples;Min_cycle;Max_cycle;Signal;HPM_P1;HPM_P2
2022/11/18 00:00:27;;;;;;;6.00;2.42;;;;;;;;;;5053386;28;20020;-67
2022/11/18 00:02:52;;;;;;;9.45;2.95;;;;;;;;;;5047841;28;20078;-67
2022/11/18 00:05:17;;;;;;;6.45;2.35;;;;;;;;;;5039532;28;20022;-67
2022/11/18 00:07:42;;;;;;;6.07;2.27;;;;;;;;;;5043428;28;20037;-67
2022/11/18 00:10:08;;;;;;;6.05;2.17;;;;;;;;;;5037469;28;20754;-67
2022/11/18 00:15:16;;;;;;;8.18;2.50;;;;;;;;;;5039450;28;20084;-67
2022/11/18 00:17:42;;;;;;;5.40;1.80;;;;;;;;;;5051690;28;20056;-67
2022/11/18 00:20:07;;;;;;;6.07;2.20;;;;;;;;;;5038342;28;20367;-67
2022/11/18 00:22:32;;;;;;;8.13;1.77;;;;;;;;;;5051030;28;20022;-67
2022/11/18 00:24:58;;;;;;;11.82;2.40;;;;;;;;;;5037777;28;20025;-67
2022/11/18 00:27:23;;;;;;;9.88;2.38;;;;;;;;;;5042302;28;20051;-67
2022/11/18 00:29:48;;;;;;;5.80;2.30;;;;;;;;;;5038046;28;20023;-67
2022/11/18 00:32:13;;;;;;;4.97;2.00;;;;;;;;;;5050863;28;20103;-67
2022/11/18 00:34:41;;;;;;;6.00;2.47;;;;;;;;;;5038643;28;20452;-67
2022/11/18 00:37:06;;;;;;;5.57;2.05;;;;;;;;;;5045087;28;20676;-67
2022/11/18 00:39:31;;;;;;;7.63;2.00;;;;;;;;;;5049441;28;20029;-67
2022/11/18 00:44:40;;;;;;;6.20;2.58;;;;;;;;;;5034575;28;20167;-67
2022/11/18 00:47:05;;;;;;;6.00;2.67;;;;;;;;;;5040972;28;20095;-67
2022/11/18 00:49:31;;;;;;;6.97;2.13;;;;;;;;;;5037483;28;20025;-67
2022/11/18 00:51:56;;;;;;;8.93;2.58;;;;;;;;;;5046099;28;20267;-67
2022/11/18 00:54:21;;;;;;;5.85;2.08;;;;;;;;;;5033755;28;20414;-68
2022/11/18 00:56:46;;;;;;;4.57;2.15;;;;;;;;;;5034775;28;20036;-67
2022/11/18 00:59:12;;;;;;;8.82;2.42;;;;;;;;;;5034733;28;20076;-67
2022/11/18 01:01:37;;;;;;;4.82;2.15;;;;;;;;;;5042178;28;20086;-67
2022/11/18 01:04:02;;;;;;;7.95;2.58;;;;;;;;;;5050473;28;20025;-67
2022/11/18 01:06:28;;;;;;;7.95;2.60;;;;;;;;;;5033026;28;20033;-67
2022/11/18 01:08:53;;;;;;;9.32;2.55;;;;;;;;;;5046961;28;20033;-67
2022/11/18 01:14:03;;;;;;;7.53;2.55;;;;;;;;;;5047157;28;20032;-67
2022/11/18 01:16:29;;;;;;;6.68;2.53;;;;;;;;;;5042497;28;20022;-67
2022/11/18 01:18:55;;;;;;;5.25;2.17;;;;;;;;;;5032731;28;20057;-67
2022/11/18 01:21:20;;;;;;;10.35;2.50;;;;;;;;;;5043068;28;20033;-67
2022/11/18 01:23:45;;;;;;;7.50;2.65;;;;;;;;;;5052279;28;20017;-67
2022/11/18 01:26:11;;;;;;;8.07;2.27;;;;;;;;;;5052705;28;20021;-67
2022/11/18 01:28:37;;;;;;;13.50;2.70;;;;;;;;;;5052415;28;20268;-67
2022/11/18 01:31:22;;;;;;;5.40;2.05;;;;;;;;;;5052669;28;20032;-67
2022/11/18 01:33:47;;;;;;;10.57;2.92;;;;;;;;;;5049516;28;20471;-67
2022/11/18 01:36:17;;;;;;;6.20;2.22;;;;;;;;;;5038627;28;20071;-67
2022/11/18 01:38:42;;;;;;;3.83;1.90;;;;;;;;;;5035616;28;20024;-67
2022/11/18 01:41:07;;;;;;;5.03;2.03;;;;;;;;;;5045451;28;20024;-67
2022/11/18 01:43:51;;;;;;;7.60;2.13;;;;;;;;;;5052297;28;20040;-67
2022/11/18 01:46:16;;;;;;;6.68;2.08;;;;;;;;;;5052094;28;20025;-67
2022/11/18 01:48:42;;;;;;;4.95;1.98;;;;;;;;;;5052653;28;20481;-67
2022/11/18 01:51:13;;;;;;;8.15;2.58;;;;;;;;;;5051246;28;20017;-67
2022/11/18 01:53:50;;;;;;;12.35;2.90;;;;;;;;;;5052852;28;20021;-67
2022/11/18 01:56:17;;;;;;;3.92;2.03;;;;;;;;;;5051791;28;20402;-67
2022/11/18 01:58:48;;;;;;;5.80;1.63;;;;;;;;;;5052007;28;20042;-67
2022/11/18 02:01:14;;;;;;;4.32;1.70;;;;;;;;;;5052044;28;20426;-67
2022/11/18 02:03:39;;;;;;;4.30;2.20;;;;;;;;;;5051455;28;20025;-67
2022/11/18 02:06:05;;;;;;;6.25;1.95;;;;;;;;;;5049809;28;20008;-67
2022/11/18 02:08:31;;;;;;;4.97;2.10;;;;;;;;;;5052178;28;20356;-67
2022/11/18 02:10:56;;;;;;;6.28;1.83;;;;;;;;;;5048067;28;20016;-67
2022/11/18 02:13:22;;;;;;;4.93;2.13;;;;;;;;;;5051330;28;20375;-67
2022/11/18 02:16:06;;;;;;;4.35;1.95;;;;;;;;;;5049187;28;20021;-67
2022/11/18 02:18:41;;;;;;;4.37;1.60;;;;;;;;;;5049980;28;20464;-67
2022/11/18 02:21:30;;;;;;;10.35;2.40;;;;;;;;;;5050177;28;20036;-67
2022/11/18 02:24:14;;;;;;;5.43;1.55;;;;;;;;;;5041673;28;20468;-67
2022/11/18 02:26:52;;;;;;;4.50;1.85;;;;;;;;;;5038998;28;20109;-67
2022/11/18 02:29:27;;;;;;;8.43;2.42;;;;;;;;;;5032239;28;20025;-67
2022/11/18 02:31:55;;;;;;;10.57;2.42;;;;;;;;;;5031630;28;20113;-68
2022/11/18 02:34:24;;;;;;;11.80;2.13;;;;;;;;;;5033866;28;20021;-67
2022/11/18 02:37:12;;;;;;;4.75;2.05;;;;;;;;;;5037089;28;20052;-67
2022/11/18 02:39:42;;;;;;;6.93;2.05;;;;;;;;;;5007422;28;20035;-67
2022/11/18 02:42:09;;;;;;;11.30;2.03;;;;;;;;;;5028018;28;20037;-67
2022/11/18 02:44:35;;;;;;;4.22;2.03;;;;;;;;;;5044387;28;20040;-67
2022/11/18 02:47:02;;;;;;;9.27;1.95;;;;;;;;;;5047471;28;20356;-68
2022/11/18 02:49:45;;;;;;;4.38;2.17;;;;;;;;;;5043340;28;20104;-67
2022/11/18 02:52:10;;;;;;;3.90;1.70;;;;;;;;;;5039647;28;20026;-67
2022/11/18 02:54:38;;;;;;;5.28;2.05;;;;;;;;;;5042880;28;20036;-67
2022/11/18 02:57:03;;;;;;;4.22;1.80;;;;;;;;;;5039068;28;20072;-67
2022/11/18 02:59:29;;;;;;;5.72;1.80;;;;;;;;;;5042407;28;20368;-67
2022/11/18 03:01:54;;;;;;;4.97;2.38;;;;;;;;;;5039197;28;20562;-67
2022/11/18 03:04:20;;;;;;;7.28;2.63;;;;;;;;;;5041824;28;20018;-67
2022/11/18 03:07:00;;;;;;;10.82;2.25;;;;;;;;;;5038445;28;20405;-67
2022/11/18 03:09:28;;;;;;;8.48;2.50;;;;;;;;;;5037358;28;20025;-67
2022/11/18 03:12:05;;;;;;;8.40;2.15;;;;;;;;;;5037806;28;20028;-67
2022/11/18 03:14:45;;;;;;;6.97;2.47;;;;;;;;;;5047460;28;20017;-67
2022/11/18 03:17:19;;;;;;;4.43;2.05;;;;;;;;;;5035328;28;20140;-67
2022/11/18 03:20:00;;;;;;;5.82;2.33;;;;;;;;;;5048392;28;20021;-67
2022/11/18 03:22:28;;;;;;;5.60;2.58;;;;;;;;;;5034870;28;20029;-67
2022/11/18 03:25:03;;;;;;;9.25;2.10;;;;;;;;;;5035528;28;20026;-67
2022/11/18 03:27:45;;;;;;;10.35;2.40;;;;;;;;;;5035692;28;20017;-67
2022/11/18 03:30:13;;;;;;;4.85;2.00;;;;;;;;;;5042744;28;20024;-68
2022/11/18 03:32:40;;;;;;;5.72;2.38;;;;;;;;;;5054693;28;20108;-67
2022/11/18 03:35:11;;;;;;;4.32;2.10;;;;;;;;;;5054263;28;20020;-67
2022/11/18 03:37:37;;;;;;;4.03;1.95;;;;;;;;;;5053670;28;20040;-67
2022/11/18 03:40:05;;;;;;;4.32;2.08;;;;;;;;;;5054643;28;20020;-67
2022/11/18 03:42:35;;;;;;;8.00;2.22;;;;;;;;;;5053247;28;20040;-67
2022/11/18 03:45:03;;;;;;;6.93;2.67;;;;;;;;;;5054653;28;20075;-67
2022/11/18 03:47:32;;;;;;;5.32;2.40;;;;;;;;;;5054229;28;20017;-67
2022/11/18 03:50:00;;;;;;;9.10;3.08;;;;;;;;;;5045229;28;20390;-67
2022/11/18 03:52:27;;;;;;;4.43;2.22;;;;;;;;;;5035183;28;20494;-67
2022/11/18 03:54:53;;;;;;;3.78;1.88;;;;;;;;;;5035207;28;20017;-67
2022/11/18 03:57:21;;;;;;;6.28;2.78;;;;;;;;;;5034143;28;20017;-67
2022/11/18 03:59:50;;;;;;;8.27;2.47;;;;;;;;;;5049823;28;20030;-67
2022/11/18 04:02:19;;;;;;;7.63;2.72;;;;;;;;;;5034844;28;20022;-67
2022/11/18 04:04:46;;;;;;;5.65;1.83;;;;;;;;;;5034672;28;20022;-67
2022/11/18 04:07:20;;;;;;;6.50;1.85;;;;;;;;;;5051585;28;20024;-67
2022/11/18 04:09:48;;;;;;;6.80;2.20;;;;;;;;;;5054155;28;20086;-67
2022/11/18 04:12:16;;;;;;;5.80;2.35;;;;;;;;;;5052837;28;20024;-67
2022/11/18 04:14:43;;;;;;;6.40;2.28;;;;;;;;;;5053717;28;20074;-67
2022/11/18 04:17:09;;;;;;;6.35;2.30;;;;;;;;;;5046812;28;20029;-68
2022/11/18 04:19:35;;;;;;;7.25;2.50;;;;;;;;;;5034223;28;20028;-67
2022/11/18 04:22:00;;;;;;;5.93;2.47;;;;;;;;;;5034155;28;20021;-67
2022/11/18 04:24:25;;;;;;;8.20;2.58;;;;;;;;;;5034346;28;20033;-67
2022/11/18 04:26:50;;;;;;;3.43;2.20;;;;;;;;;;5034943;28;20096;-67
2022/11/18 04:29:16;;;;;;;5.20;2.53;;;;;;;;;;5010830;28;20267;-67
2022/11/18 04:31:41;;;;;;;5.07;2.28;;;;;;;;;;5015577;28;20268;-67
2022/11/18 04:34:06;;;;;;;6.57;2.63;;;;;;;;;;5035466;28;20427;-67
2022/11/18 04:36:31;;;;;;;4.20;2.17;;;;;;;;;;5035785;28;20631;-67
2022/11/18 04:38:56;;;;;;;5.50;2.10;;;;;;;;;;5034917;28;20622;-67
2022/11/18 04:41:54;;;;;;;4.90;2.63;;;;;;;;;;5041910;28;20080;-67
2022/11/18 04:44:11;;;;;;;8.02;2.28;;;;;;;;;;5036663;28;20056;-67
2022/11/18 04:46:37;;;;;;;4.15;2.60;;;;;;;;;;5044941;28;20037;-67
2022/11/18 04:49:02;;;;;;;5.25;2.60;;;;;;;;;;5034261;28;20021;-67
2022/11/18 04:51:27;;;;;;;6.03;2.40;;;;;;;;;;5037290;28;20100;-67
2022/11/18 04:53:52;;;;;;;6.93;2.73;;;;;;;;;;5040499;28;20341;-67
2022/11/18 04:56:17;;;;;;;4.30;2.53;;;;;;;;;;5036677;28;20339;-67
2022/11/18 04:58:43;;;;;;;6.70;2.30;;;;;;;;;;5038132;28;20392;-67
2022/11/18 05:01:08;;;;;;;3.80;1.95;;;;;;;;;;5043019;28;20021;-67
2022/11/18 05:03:33;;;;;;;5.10;2.60;;;;;;;;;;5042682;28;20075;-67
2022/11/18 05:06:00;;;;;;;5.50;2.65;;;;;;;;;;5036621;28;20260;-67
2022/11/18 05:08:25;;;;;;;6.45;2.63;;;;;;;;;;5044152;28;20017;-67
2022/11/18 05:12:47;;;;;;;5.57;2.50;;;;;;;;;;5039468;28;20025;-67
2022/11/18 05:13:36;;;;;;;7.90;2.30;;;;;;;;;;5042186;28;20526;-67
2022/11/18 05:16:01;;;;;;;5.50;2.42;;;;;;;;;;5053057;28;20052;-67
2022/11/18 05:18:26;;;;;;;4.75;2.45;;;;;;;;;;5035686;28;20430;-67
2022/11/18 05:20:51;;;;;;;5.85;2.40;;;;;;;;;;5034345;28;20092;-67
2022/11/18 05:23:17;;;;;;;9.13;2.60;;;;;;;;;;5035336;28;20021;-67
2022/11/18 05:25:42;;;;;;;6.20;2.53;;;;;;;;;;5034529;28;20272;-67
2022/11/18 05:28:07;;;;;;;5.60;2.50;;;;;;;;;;5035735;28;20018;-66
2022/11/18 05:30:32;;;;;;;5.07;2.80;;;;;;;;;;5034440;28;20467;-67
2022/11/18 05:32:58;;;;;;;5.88;2.40;;;;;;;;;;5050300;28;20021;-67
2022/11/18 05:35:23;;;;;;;6.28;2.88;;;;;;;;;;5042108;28;20025;-67
2022/11/18 05:37:48;;;;;;;5.80;3.00;;;;;;;;;;5039549;28;20041;-67
2022/11/18 05:40:13;;;;;;;5.73;3.33;;;;;;;;;;5042447;28;20092;-67
2022/11/18 05:45:22;;;;;;;6.45;3.10;;;;;;;;;;5034527;28;20407;-67
2022/11/18 05:47:59;;;;;;;7.53;3.50;;;;;;;;;;5033015;28;20025;-67
2022/11/18 05:50:25;;;;;;;5.35;2.85;;;;;;;;;;5034476;28;20025;-67
2022/11/18 05:52:50;;;;;;;8.43;2.90;;;;;;;;;;5034085;28;20091;-67
2022/11/18 05:55:16;;;;;;;5.93;3.90;;;;;;;;;;5033391;28;20423;-67
2022/11/18 05:57:41;;;;;;;6.75;3.97;;;;;;;;;;5034312;28;20037;-67
2022/11/18 06:00:07;;;;;;;8.90;3.83;;;;;;;;;;5034379;28;20013;-67
2022/11/18 06:02:32;;;;;;;6.05;3.88;;;;;;;;;;5039863;28;20027;-67
2022/11/18 06:04:59;;;;;;;11.90;3.80;;;;;;;;;;5044142;28;20155;-67
2022/11/18 06:07:27;;;;;;;7.40;3.58;;;;;;;;;;5053742;28;20061;-68
2022/11/18 06:09:55;;;;;;;10.00;4.00;;;;;;;;;;5037950;28;20092;-67
2022/11/18 06:12:22;;;;;;;5.97;3.63;;;;;;;;;;5040971;28;20018;-67
2022/11/18 06:14:51;;;;;;;5.85;3.75;;;;;;;;;;5051544;28;20085;-67
2022/11/18 06:17:21;;;;;;;8.93;4.07;;;;;;;;;;5051636;28;20033;-67
2022/11/18 06:19:46;;;;;;;8.80;3.92;;;;;;;;;;5036285;28;20034;-67
2022/11/18 06:22:12;;;;;;;6.65;3.83;;;;;;;;;;5037093;28;20018;-67
2022/11/18 06:24:37;;;;;;;6.28;3.42;;;;;;;;;;5039360;28;20379;-67
2022/11/18 06:27:03;;;;;;;11.38;4.25;;;;;;;;;;5032623;28;20020;-67
2022/11/18 06:29:29;;;;;;;12.02;4.13;;;;;;;;;;5038609;28;20049;-67
2022/11/18 06:31:54;;;;;;;9.73;4.63;;;;;;;;;;5052131;28;20131;-67
2022/11/18 06:34:19;;;;;;;12.68;4.57;;;;;;;;;;5051262;28;20109;-67
2022/11/18 06:36:44;;;;;;;7.60;3.53;;;;;;;;;;5044612;28;20048;-67
2022/11/18 06:39:10;;;;;;;6.80;3.90;;;;;;;;;;5034036;28;20438;-67
2022/11/18 06:41:35;;;;;;;7.07;4.15;;;;;;;;;;5047565;28;20693;-67
2022/11/18 06:44:00;;;;;;;10.45;4.05;;;;;;;;;;5051496;28;20043;-67
2022/11/18 06:49:09;;;;;;;7.15;4.18;;;;;;;;;;5051773;28;20111;-67
2022/11/18 06:51:34;;;;;;;6.50;4.50;;;;;;;;;;5051597;28;20096;-67
2022/11/18 06:54:00;;;;;;;5.97;3.67;;;;;;;;;;5050753;28;20109;-67
2022/11/18 06:56:25;;;;;;;11.00;5.07;;;;;;;;;;5039626;28;20017;-68
2022/11/18 06:58:54;;;;;;;8.77;4.47;;;;;;;;;;5045986;28;20100;-67
2022/11/18 07:01:21;;;;;;;15.85;4.35;;;;;;;;;;5040497;28;20037;-67
2022/11/18 07:03:46;;;;;;;7.97;4.82;;;;;;;;;;5037011;28;20025;-67
2022/11/18 07:06:13;;;;;;;8.98;4.93;;;;;;;;;;5041598;28;20016;-67
2022/11/18 07:08:39;;;;;;;8.50;4.38;;;;;;;;;;5044128;28;20029;-67
2022/11/18 07:11:05;;;;;;;10.57;4.80;;;;;;;;;;5032727;28;20037;-66
2022/11/18 07:13:34;;;;;;;8.05;4.13;;;;;;;;;;5037049;28;20025;-67
2022/11/18 07:16:06;;;;;;;9.50;4.10;;;;;;;;;;5035570;28;20022;-68
2022/11/18 07:18:32;;;;;;;6.50;4.07;;;;;;;;;;5037400;28;20103;-67
2022/11/18 07:21:00;;;;;;;22.02;5.30;;;;;;;;;;5042953;28;20013;-67
2022/11/18 07:23:26;;;;;;;13.60;5.35;;;;;;;;;;5050671;28;20387;-67
2022/11/18 07:25:53;;;;;;;9.77;4.53;;;;;;;;;;5052239;28;20483;-68
2022/11/18 07:28:18;;;;;;;12.40;5.10;;;;;;;;;;5053177;28;20051;-67
2022/11/18 07:30:43;;;;;;;10.32;4.50;;;;;;;;;;5053214;28;20025;-67
2022/11/18 07:33:09;;;;;;;12.27;4.20;;;;;;;;;;5052353;28;20021;-67
2022/11/18 07:35:34;;;;;;;9.53;4.33;;;;;;;;;;5053633;28;20021;-68
2022/11/18 07:37:59;;;;;;;8.75;3.97;;;;;;;;;;5052465;28;20311;-67
2022/11/18 07:40:24;;;;;;;8.00;4.22;;;;;;;;;;5040566;28;20100;-67
2022/11/18 07:42:50;;;;;;;6.82;3.95;;;;;;;;;;5054618;28;20459;-67
2022/11/18 07:45:15;;;;;;;5.97;4.15;;;;;;;;;;5051577;28;20025;-67
2022/11/18 07:47:40;;;;;;;5.38;3.53;;;;;;;;;;5053111;28;20021;-67
2022/11/18 07:50:05;;;;;;;7.85;3.78;;;;;;;;;;5051872;28;20042;-67
2022/11/18 07:52:31;;;;;;;8.38;4.53;;;;;;;;;;5052744;28;20021;-67
2022/11/18 07:54:56;;;;;;;7.15;3.85;;;;;;;;;;5049975;28;20073;-67
2022/11/18 07:57:22;;;;;;;7.78;3.95;;;;;;;;;;5052401;28;20098;-67
2022/11/18 07:59:47;;;;;;;9.13;4.22;;;;;;;;;;5046382;28;20965;-67
2022/11/18 08:02:12;;;;;;;9.15;4.22;;;;;;;;;;5049568;28;20028;-67
2022/11/18 08:04:37;;;;;;;7.32;3.78;;;;;;;;;;5049276;28;20025;-67
2022/11/18 08:07:03;;;;;;;6.05;3.80;;;;;;;;;;5051222;28;20017;-67
2022/11/18 08:09:28;;;;;;;6.40;3.90;;;;;;;;;;5051363;28;20025;-67
2022/11/18 08:11:53;;;;;;;6.80;3.78;;;;;;;;;;5052464;28;20052;-67
2022/11/18 08:14:20;;;;;;;6.18;3.90;;;;;;;;;;5052099;28;20036;-67
2022/11/18 08:16:46;;;;;;;8.02;3.60;;;;;;;;;;5052608;28;20059;-67
2022/11/18 08:19:11;;;;;;;8.52;3.85;;;;;;;;;;5050977;28;20013;-67
2022/11/18 08:21:36;;;;;;;6.25;3.53;;;;;;;;;;5053237;28;20055;-67
2022/11/18 08:24:01;;;;;;;8.70;3.67;;;;;;;;;;5051680;28;20033;-67
2022/11/18 08:26:27;;;;;;;6.60;3.53;;;;;;;;;;5052987;28;20390;-67
2022/11/18 08:28:52;;;;;;;9.60;4.05;;;;;;;;;;5050912;28;20021;-67
2022/11/18 08:31:18;;;;;;;9.40;4.28;;;;;;;;;;5049223;28;20088;-67
2022/11/18 08:33:44;;;;;;;14.27;3.85;;;;;;;;;;5047018;28;20021;-67
2022/11/18 08:36:17;;;;;;;9.63;3.90;;;;;;;;;;5048689;28;20100;-67
2022/11/18 08:38:42;;;;;;;10.57;3.45;;;;;;;;;;5045231;28;20025;-67
2022/11/18 08:41:10;;;;;;;7.32;3.33;;;;;;;;;;5052143;28;20028;-67
2022/11/18 08:43:35;;;;;;;7.25;3.75;;;;;;;;;;5052384;28;20120;-67
2022/11/18 08:46:00;;;;;;;10.95;3.67;;;;;;;;;;5053023;28;20429;-68
2022/11/18 08:48:26;;;;;;;6.13;3.17;;;;;;;;;;5035588;28;20039;-67
2022/11/18 08:50:51;;;;;;;7.75;3.15;;;;;;;;;;5033826;28;20288;-67
2022/11/18 08:53:17;;;;;;;9.45;3.55;;;;;;;;;;5034557;28;20025;-67
2022/11/18 08:55:42;;;;;;;11.32;4.13;;;;;;;;;;5033318;28;20025;-67
2022/11/18 08:58:07;;;;;;;10.73;4.00;;;;;;;;;;5032923;28;20108;-67
2022/11/18 09:00:32;;;;;;;7.53;3.63;;;;;;;;;;5043453;28;20433;-68
2022/11/18 09:02:58;;;;;;;8.07;3.72;;;;;;;;;;5049047;28;20014;-67
2022/11/18 09:05:23;;;;;;;6.80;3.13;;;;;;;;;;5042755;28;20016;-67
2022/11/18 09:07:48;;;;;;;5.88;3.05;;;;;;;;;;5052097;28;20818;-67
2022/11/18 09:10:14;;;;;;;8.47;3.33;;;;;;;;;;5039059;28;20642;-67
2022/11/18 09:12:41;;;;;;;11.32;3.58;;;;;;;;;;5060523;28;20271;-67
2022/11/18 09:15:07;;;;;;;10.50;3.33;;;;;;;;;;5050291;28;20017;-68
2022/11/18 09:17:33;;;;;;;10.27;3.35;;;;;;;;;;5042727;28;20045;-68
2022/11/18 09:19:58;;;;;;;10.13;3.22;;;;;;;;;;5029557;28;20025;-67
2022/11/18 09:22:23;;;;;;;10.18;4.13;;;;;;;;;;5044474;28;20060;-67
2022/11/18 09:24:48;;;;;;;11.73;3.65;;;;;;;;;;5051404;28;20598;-67
2022/11/18 09:27:14;;;;;;;7.88;3.17;;;;;;;;;;5052201;28;20036;-67
2022/11/18 09:29:39;;;;;;;7.57;2.95;;;;;;;;;;5038459;28;20017;-67
2022/11/18 09:32:04;;;;;;;8.45;3.35;;;;;;;;;;5032247;28;20456;-67
2022/11/18 09:34:29;;;;;;;7.80;2.97;;;;;;;;;;5033140;28;20395;-67
2022/11/18 09:36:55;;;;;;;10.70;2.95;;;;;;;;;;5059672;28;20079;-68
2022/11/18 09:39:26;;;;;;;10.90;3.40;;;;;;;;;;5043997;28;20017;-67
2022/11/18 09:41:51;;;;;;;10.30;2.90;;;;;;;;;;5049268;28;20043;-67
2022/11/18 09:44:35;;;;;;;7.17;2.77;;;;;;;;;;5038952;28;20124;-67
2022/11/18 09:47:03;;;;;;;6.15;2.95;;;;;;;;;;5033254;28;20355;-68
2022/11/18 09:49:35;;;;;;;7.90;3.33;;;;;;;;;;5046933;28;20096;-67
2022/11/18 09:52:01;;;;;;;7.15;3.25;;;;;;;;;;5043043;28;20009;-67
2022/11/18 09:54:29;;;;;;;10.48;3.67;;;;;;;;;;5045184;28;20032;-67
2022/11/18 09:56:55;;;;;;;9.77;3.33;;;;;;;;;;5049267;28;20071;-67
2022/11/18 09:59:22;;;;;;;7.10;2.67;;;;;;;;;;5036412;28;20017;-67
2022/11/18 10:01:49;;;;;;;5.43;2.97;;;;;;;;;;5042786;28;20017;-67
2022/11/18 10:04:15;;;;;;;9.52;3.35;;;;;;;;;;5061001;28;20071;-68
2022/11/18 10:06:41;;;;;;;14.13;3.47;;;;;;;;;;5047754;28;20021;-67
2022/11/18 10:09:09;;;;;;;6.63;2.95;;;;;;;;;;5036204;28;20047;-67
2022/11/18 10:11:39;;;;;;;7.85;3.30;;;;;;;;;;5033573;28;20387;-67
2022/11/18 10:14:20;;;;;;;7.97;2.67;;;;;;;;;;5037423;28;20021;-67
2022/11/18 10:16:45;;;;;;;12.70;3.45;;;;;;;;;;5037409;28;20360;-67
2022/11/18 10:19:20;;;;;;;7.10;3.10;;;;;;;;;;5046852;28;20070;-67
2022/11/18 10:21:51;;;;;;;7.90;3.45;;;;;;;;;;5039221;28;20271;-67
2022/11/18 10:24:18;;;;;;;14.50;3.55;;;;;;;;;;5036765;28;20029;-67
2022/11/18 10:26:44;;;;;;;9.57;3.88;;;;;;;;;;5041049;28;20013;-67
2022/11/18 10:29:09;;;;;;;8.02;3.50;;;;;;;;;;5036223;28;20343;-67
2022/11/18 10:31:35;;;;;;;5.70;2.88;;;;;;;;;;5039049;28;20037;-68
2022/11/18 10:34:01;;;;;;;7.55;3.00;;;;;;;;;;5036587;28;20049;-67
2022/11/18 10:36:27;;;;;;;7.93;3.20;;;;;;;;;;5034129;28;20507;-68
2022/11/18 10:39:04;;;;;;;6.18;2.63;;;;;;;;;;5033822;28;20030;-68
2022/11/18 10:41:36;;;;;;;6.30;2.88;;;;;;;;;;5034020;28;20104;-68
2022/11/18 10:44:02;;;;;;;8.25;3.17;;;;;;;;;;5035454;28;20037;-67
2022/11/18 10:46:29;;;;;;;11.55;3.55;;;;;;;;;;5048808;28;20074;-67
2022/11/18 10:49:07;;;;;;;11.40;3.20;;;;;;;;;;5040475;28;20049;-68
2022/11/18 10:51:34;;;;;;;11.82;3.50;;;;;;;;;;5047849;28;20499;-69
2022/11/18 10:54:11;;;;;;;7.03;2.83;;;;;;;;;;5024143;28;20026;-72
2022/11/18 10:56:56;;;;;;;8.18;3.25;;;;;;;;;;5037611;28;20502;-68
2022/11/18 10:59:21;;;;;;;;;;;;;;;;;;5038063;28;20103;-68
2022/11/18 11:02:00;;;;;;;15.55;3.53;;;;;;;;;;5037000;28;19968;-69
2022/11/18 11:04:27;;;;;;;8.75;3.78;;;;;;;;;;5037735;28;20024;-68
2022/11/18 11:06:52;;;;;;;9.25;3.25;;;;;;;;;;5045401;28;20021;-68
2022/11/18 11:09:26;;;;;;;7.20;3.20;;;;;;;;;;5049316;28;20032;-68
2022/11/18 11:12:12;;;;;;;11.18;3.33;;;;;;;;;;5043862;28;20018;-68
2022/11/18 11:14:45;;;;;;;7.50;2.80;;;;;;;;;;5042834;28;20025;-68
2022/11/18 11:17:15;;;;;;;8.23;3.47;;;;;;;;;;5043017;28;20028;-68
2022/11/18 11:19:56;;;;;;;6.43;3.22;;;;;;;;;;5040781;28;20018;-68
2022/11/18 11:22:21;;;;;;;6.90;3.03;;;;;;;;;;5038592;28;20096;-68
2022/11/18 11:24:46;;;;;;;9.60;3.30;;;;;;;;;;5037859;28;20105;-68
2022/11/18 11:27:17;;;;;;;6.10;3.22;;;;;;;;;;5038013;28;20041;-68
2022/11/18 11:29:45;;;;;;;5.53;2.85;;;;;;;;;;5036127;28;20018;-68
2022/11/18 11:32:16;;;;;;;9.68;3.53;;;;;;;;;;5042584;28;20017;-68
2022/11/18 11:34:59;;;;;;;8.82;3.03;;;;;;;;;;5036834;28;20025;-68
2022/11/18 11:37:30;;;;;;;9.90;3.97;;;;;;;;;;5039237;28;20120;-68
2022/11/18 11:40:14;;;;;;;9.02;2.25;;;;;;;;;;5037100;28;20029;-68
2022/11/18 11:42:58;;;;;;;5.57;3.00;;;;;;;;;;5043400;28;20040;-68
2022/11/18 11:45:23;;;;;;;6.82;2.72;;;;;;;;;;5034888;28;20286;-68
2022/11/18 11:48:10;;;;;;;6.60;3.17;;;;;;;;;;5035433;28;20025;-68
2022/11/18 11:50:52;;;;;;;8.05;2.60;;;;;;;;;;5045224;28;20303;-71
2022/11/18 11:53:17;;;;;;;7.65;2.78;;;;;;;;;;5033957;28;20035;-68
2022/11/18 11:55:59;;;;;;;4.67;2.50;;;;;;;;;;5031735;28;20088;-68
2022/11/18 11:58:43;;;;;;;10.13;3.03;;;;;;;;;;5035848;28;20318;-68
2022/11/18 12:01:29;;;;;;;10.83;2.83;;;;;;;;;;5035374;28;20033;-68
2022/11/18 12:04:00;;;;;;;9.40;3.28;;;;;;;;;;5034867;28;20044;-70
2022/11/18 12:06:25;;;;;;;7.22;2.70;;;;;;;;;;5040916;28;20079;-68
2022/11/18 12:08:59;;;;;;;4.20;2.50;;;;;;;;;;5042882;28;20034;-68
2022/11/18 12:11:25;;;;;;;7.40;3.08;;;;;;;;;;5036209;28;20310;-68
2022/11/18 12:13:53;;;;;;;4.27;2.47;;;;;;;;;;5042904;28;20044;-68
2022/11/18 12:16:36;;;;;;;5.25;2.28;;;;;;;;;;5041927;28;20284;-68
2022/11/18 12:19:06;;;;;;;7.78;3.22;;;;;;;;;;5058944;28;20025;-68
2022/11/18 12:21:47;;;;;;;6.55;2.58;;;;;;;;;;5040237;28;20024;-68
2022/11/18 12:24:30;;;;;;;8.68;3.03;;;;;;;;;;5045794;28;20020;-68
2022/11/18 12:27:00;;;;;;;7.27;2.77;;;;;;;;;;5052378;28;20032;-68
2022/11/18 12:29:30;;;;;;;7.90;2.80;;;;;;;;;;5042496;28;20025;-68
2022/11/18 12:31:56;;;;;;;8.50;2.60;;;;;;;;;;5040164;28;20017;-70
2022/11/18 12:34:24;;;;;;;4.13;1.70;;;;;;;;;;5043529;28;20048;-68
2022/11/18 12:36:50;;;;;;;5.53;2.38;;;;;;;;;;5041877;28;20056;-68
2022/11/18 12:39:18;;;;;;;6.85;2.72;;;;;;;;;;5035783;28;20017;-68
2022/11/18 12:44:27;;;;;;;7.68;2.60;;;;;;;;;;5041542;28;20415;-68
2022/11/18 12:46:54;;;;;;;3.97;2.08;;;;;;;;;;5037351;28;20013;-68
2022/11/18 12:49:23;;;;;;;6.93;2.05;;;;;;;;;;5034370;28;20027;-66
2022/11/18 12:51:48;;;;;;;5.18;2.22;;;;;;;;;;5047744;28;20028;-68
2022/11/18 12:54:23;;;;;;;7.25;2.13;;;;;;;;;;5044608;28;20017;-66
2022/11/18 12:56:49;;;;;;;9.98;2.08;;;;;;;;;;5046621;28;20112;-68
2022/11/18 12:59:15;;;;;;;9.23;2.40;;;;;;;;;;5043189;28;20121;-69
2022/11/18 13:01:40;;;;;;;5.97;1.80;;;;;;;;;;5043929;28;20522;-69
2022/11/18 13:04:16;;;;;;;4.47;1.50;;;;;;;;;;5040419;28;20017;-68
2022/11/18 13:06:42;;;;;;;10.10;2.60;;;;;;;;;;5042433;28;20358;-70
2022/11/18 13:09:18;;;;;;;5.20;1.88;;;;;;;;;;5056200;28;20104;-67
2022/11/18 13:11:46;;;;;;;5.45;2.42;;;;;;;;;;5053007;28;20021;-71
2022/11/18 13:20:29;;;;;;;5.10;1.90;;;;;;;;;;5043614;28;20086;-68
2022/11/18 13:25:41;;;;;;;5.38;2.25;;;;;;;;;;5033895;28;20044;-73
2022/11/18 13:28:16;;;;;;;5.97;2.00;;;;;;;;;;5061215;28;20025;-73
2022/11/18 13:30:53;;;;;;;6.95;2.53;;;;;;;;;;5034132;28;20018;-70
2022/11/18 13:33:18;;;;;;;4.80;1.95;;;;;;;;;;5035270;28;20071;-70
2022/11/18 13:35:43;;;;;;;5.05;2.30;;;;;;;;;;5033581;28;20021;-69
2022/11/18 13:38:18;;;;;;;5.97;2.10;;;;;;;;;;5034408;28;20108;-70
2022/11/18 13:41:31;;;;;;;6.22;2.33;;;;;;;;;;5042305;28;20040;-66
2022/11/18 13:43:33;;;;;;;10.27;1.80;;;;;;;;;;5028442;28;20033;-66
2022/11/18 13:45:59;;;;;;;5.38;2.38;;;;;;;;;;5037392;28;20043;-66
2022/11/18 13:48:25;;;;;;;4.45;2.10;;;;;;;;;;5041693;28;20025;-65
2022/11/18 13:50:53;;;;;;;4.55;1.88;;;;;;;;;;5044731;28;20087;-67
2022/11/18 13:53:29;;;;;;;7.10;2.20;;;;;;;;;;5052626;28;20023;-66
2022/11/18 13:55:57;;;;;;;5.85;2.17;;;;;;;;;;5044476;28;20017;-66
2022/11/18 13:58:33;;;;;;;6.38;2.65;;;;;;;;;;5050410;28;20036;-66
2022/11/18 14:00:59;;;;;;;10.95;2.88;;;;;;;;;;5045391;28;20110;-66
2022/11/18 14:03:30;;;;;;;5.47;1.75;;;;;;;;;;5042221;28;20020;-66
2022/11/18 14:05:56;;;;;;;8.65;2.58;;;;;;;;;;5044899;28;20027;-67
2022/11/18 14:08:25;;;;;;;5.65;1.95;;;;;;;;;;5043386;28;20443;-66
2022/11/18 14:10:50;;;;;;;4.32;1.80;;;;;;;;;;5045661;28;20059;-66
2022/11/18 14:13:16;;;;;;;4.03;1.73;;;;;;;;;;5042600;28;20013;-66
2022/11/18 14:15:41;;;;;;;7.30;1.93;;;;;;;;;;5044374;28;20045;-66
2022/11/18 14:18:15;;;;;;;6.72;1.48;;;;;;;;;;5040515;28;20037;-67
2022/11/18 14:20:41;;;;;;;;;;;;;;;;;;5045612;28;20022;-71
2022/11/18 14:23:13;;;;;;;4.90;1.63;;;;;;;;;;5039993;28;20012;-70
2022/11/18 14:25:42;;;;;;;5.00;1.75;;;;;;;;;;5045331;28;20267;-69
2022/11/18 14:28:16;;;;;;;4.93;2.15;;;;;;;;;;5045014;28;20025;-68
2022/11/18 14:30:41;;;;;;;;;;;;;;;;;;5045305;28;20101;-68
2022/11/18 14:33:08;;;;;;;4.40;1.93;;;;;;;;;;5042714;28;19970;-70
2022/11/18 14:35:33;;;;;;;5.13;1.70;;;;;;;;;;5053175;28;20384;-68
2022/11/18 14:37:59;;;;;;;7.45;2.10;;;;;;;;;;5031778;28;20120;-69
2022/11/18 14:40:24;;;;;;;5.30;1.40;;;;;;;;;;5050278;28;20476;-69
2022/11/18 14:42:49;;;;;;;4.20;1.90;;;;;;;;;;5043250;28;20034;-69
2022/11/18 14:45:14;;;;;;;3.10;1.10;;;;;;;;;;5028862;28;20474;-69
2022/11/18 14:47:40;;;;;;;5.72;1.77;;;;;;;;;;5039846;28;20599;-68
2022/11/18 14:50:11;;;;;;;3.20;1.70;;;;;;;;;;5041382;28;20021;-70
2022/11/18 14:52:37;;;;;;;5.57;1.92;;;;;;;;;;5033652;28;20063;-69
2022/11/18 14:55:02;;;;;;;6.47;1.67;;;;;;;;;;5042870;28;20050;-74
2022/11/18 14:57:27;;;;;;;3.45;1.38;;;;;;;;;;5049900;28;20022;-67
2022/11/18 14:59:53;;;;;;;8.20;2.65;;;;;;;;;;5047138;28;20030;-67
2022/11/18 15:02:18;;;;;;;4.60;1.80;;;;;;;;;;5036190;28;20017;-68
2022/11/18 15:04:43;;;;;;;5.90;1.88;;;;;;;;;;5040884;28;20268;-67
2022/11/18 15:07:11;;;;;;;5.45;1.83;;;;;;;;;;5039380;28;20024;-69
2022/11/18 15:09:37;;;;;;;3.63;1.60;;;;;;;;;;5043707;28;20029;-67
2022/11/18 15:12:02;;;;;;;3.35;1.35;;;;;;;;;;5041613;28;20060;-68
2022/11/18 15:14:27;;;;;;;4.90;1.95;;;;;;;;;;5044539;28;20075;-68